Airfield :
LOGIN :

Register | Disclaimer

   EN    FR    IT 

 










Legend :    VFR   Marginal VFR   IFR   Intensive IFR   Very Intensive IFR
Visi :
Ceiling :
>= 8 km
>= 3000ft
5 to 8 km
1000 to 3000 ft
1500m to 5 km
500 to 1000 ft
800 to 1500m
200 to 500 ft
< 800m
< 200 ft
Symbols :   Thunderstorms  Fog  Heavy snow  Heavy precipitations  Wind > 20 kt
SIGMETs :     Misc.  Thunderstorms  Icing  Turbulence  Mountain Waves  Volcanic Ashes







- Airport Elevation : 16 ft
- IATA code : AAE


DABB - Annaba-Rabah Bitat

CURRENT METAR :
  • 182130Z 03002KT 9999 FEW026 SCT200 20/17 Q1013

EXPIRED METARs :
  • 182100Z 01007KT 9999 FEW026 SCT200 21/17 Q1014
  • 182030Z 36006KT 9999 FEW026 SCT200 21/16 Q1014
  • 182000Z 35004KT 9999 FEW026 SCT200 21/15 Q1015
  • 181930Z 01003KT 9999 FEW026 SCT200 21/14 Q1013
  • 181900Z 03002KT 9999 FEW026 SCT200 21/14 Q1014

TAF TAF DABB
Valid from the 18 at 18:00 until the 19 at 18:00 UTC


181700Z 1818/1918 30010KT 9999 FEW026
BECMG 1821/1823 16008KT
BECMG 1912/1914 34014KT
No reported NOTAMs for that airfield.
1 SIGMET reported for the Alger FIR (DAAA) :
 
Embedded thunderstorms
DAAA SIGMET 2 VALID 182030/182400 DAMM
DAAA ALGIERS FIR EMBD TS OBS WI N3724 E00221 - N3602 E00306 - N3357 E00008 - N3451 W00052 - N3610 W00000 - N3713 E00114 - N3724 E00221 TOP FL340 MOV NE NC=



MET'MAP, your aeronautical weather chart ! - Copyright ORBIFLY December 2007 - Disclaimer

ORBIFLY MET'MAP TEAM :

Programming & Development : Alexandra Zaïnal
Concept & Development : Baudouin d'Aumeries
Co-Development & Prog : Marc-Olivier Méhu
Technical & hardware support : Manuel Goepfert

Contact : metmap@orbifly.com




SOURCES & CREDITS :

   NOAA